Flight Track Log - Related Links

Times and Time Zones

All times are in EDT time to prevent confusion due to time zone crossing. See the ASQ5963 flight status page for this flight to view local times or setup timezone preferences in your user account.

Time Position Orientation Groundspeed Altitude Reporting Facility
EDT Latitude Longitude Course Direction KTS MPH feet Rate Location/Type
Thu 02:05:47 PM 29.9594 -95.3414 90° East 158 182 700  Level Houston Center
Thu 02:07:02 PM 29.9142 -95.2836 132° Southeast 212 244 2,500 1,404 Climbing Houston Center
Thu 02:08:08 PM 29.8644 -95.2228 133° Southeast 255 293 4,000 1,597 Climbing Houston Center
Thu 02:09:06 PM 29.8178 -95.1636 132° Southeast 265 305 5,800 1,835 Climbing Houston Center
Thu 02:10:00 PM 29.9834 -94.7043 90° East  Level FlightAware Approximate
Thu 02:10:09 PM 29.8069 -95.0869 99° East 275 316 7,700  Level Houston Center
Thu 02:11:00 PM 29.9833 -94.5785 90° East  Level FlightAware Approximate
Thu 02:11:11 PM 29.8433 -95.0069 62° Northeast 289 333 9,500  Level Houston Center
Thu 02:12:13 PM 29.8639 -94.9169 75° East 288 331 11,000 1,161 Climbing Houston Center
Thu 02:13:15 PM 29.8847 -94.8203 76° East 303 349 11,900 1,210 Climbing Houston Center
Thu 02:14:17 PM 29.9119 -94.6942 76° East 331 381 13,500 1,355 Climbing Houston Center
Thu 02:15:19 PM 29.9350 -94.5878 76° East 340 391 14,700 1,065 Climbing Houston Center
Thu 02:16:21 PM 29.9586 -94.4794 76° East 346 398 15,700 919 Climbing Houston Center
Thu 02:17:23 PM 29.9819 -94.3775 75° East 347 399 16,600 960 Climbing Houston Center
Thu 02:18:26 PM 30.0056 -94.2408 79° East 359 413 17,700 1,008 Climbing Houston Center
Thu 02:19:28 PM 30.0200 -94.1247 82° East 363 418 18,700 968 Climbing Houston Center
Thu 02:20:30 PM 30.0339 -94.0086 82° East 367 422 19,700 968 Climbing Houston Center
Thu 02:21:32 PM 30.0481 -93.8889 82° East 370 426 20,700 968 Climbing Houston Center
Thu 02:22:34 PM 30.0614 -93.7744 82° East 370 426 21,700 1,065 Climbing Houston Center
Thu 02:23:36 PM 30.0781 -93.6342 82° East 372 428 22,900 1,065 Climbing Houston Center
Thu 02:24:38 PM 30.0917 -93.5181 82° East 369 425 23,900 960 Climbing Houston Center
Thu 02:25:41 PM 30.1058 -93.4033 82° East 368 423 24,900 960 Climbing Houston Center
Thu 02:26:43 PM 30.1189 -93.2886 82° East 365 420 25,900 968 Climbing Houston Center
Thu 02:27:45 PM 30.1322 -93.1736 82° East 361 415 26,900 1,065 Climbing Houston Center
Thu 02:28:47 PM 30.1725 -93.0478 70° East 369 425 28,100 1,065 Climbing Houston Center
Thu 02:29:49 PM 30.2247 -92.9514 58° Northeast 359 413 29,100 968 Climbing Houston Center
Thu 02:30:51 PM 30.2775 -92.8544 58° Northeast 358 412 30,100 968 Climbing Houston Center
Thu 02:31:53 PM 30.3303 -92.7586 57° Northeast 357 411 31,100 912 Climbing Houston Center
Thu 02:32:56 PM 30.3833 -92.6619 58° Northeast 358 412 32,000 1,008 Climbing Houston Center
Thu 02:33:58 PM 30.4442 -92.5494 58° Northeast 349 402 33,200 1,065 Climbing Houston Center
Thu 02:35:00 PM 30.4944 -92.4547 58° Northeast 341 392 34,200 726 Climbing Houston Center
Thu 02:36:02 PM 30.5453 -92.3619 58° Northeast 345 397 34,700 384 Climbing Houston Center
Thu 02:37:05 PM 30.5956 -92.2678 58° Northeast 346 398 35,000 145 Climbing Houston Center
Thu 02:38:06 PM 30.6494 -92.1681 58° Northeast 368 423 35,000  Level Houston Center
Thu 02:39:08 PM 30.7172 -92.0419 58° Northeast 383 441 35,000  Level Houston Center
Thu 02:40:11 PM 30.7758 -91.9314 58° Northeast 399 459 35,000  Level Houston Center
Thu 02:41:13 PM 30.8381 -91.8156 58° Northeast 413 475 35,000  Level Houston Center
Thu 02:42:15 PM 30.9008 -91.6967 58° Northeast 424 488 35,000  Level Houston Center
Thu 02:43:17 PM 30.9642 -91.5772 58° Northeast 431 496 35,000  Level Houston Center
Thu 02:44:20 PM 31.0403 -91.4339 58° Northeast 434 499 35,000  Level Houston Center
Thu 02:45:21 PM 31.1053 -91.3131 58° Northeast 436 502 35,000  Level Houston Center
Thu 02:46:23 PM 31.1686 -91.1919 59° Northeast 436 502 35,000  Level Houston Center
Thu 02:47:26 PM 31.2311 -91.0697 59° Northeast 438 504 35,000  Level Houston Center
Thu 02:48:28 PM 31.2967 -90.9467 58° Northeast 444 511 35,000  Level Houston Center
Thu 02:49:30 PM 31.3611 -90.8222 59° Northeast 446 513 35,000  Level Houston Center
Thu 02:50:32 PM 31.4253 -90.6967 59° Northeast 449 517 35,000  Level Houston Center
Thu 02:51:34 PM 31.5042 -90.5464 58° Northeast 451 519 35,000  Level Houston Center
Thu 02:52:37 PM 31.5683 -90.4197 59° Northeast 451 519 35,000  Level Houston Center
Thu 02:53:38 PM 31.6328 -90.2939 59° Northeast 451 519 35,000  Level Houston Center
Thu 02:54:41 PM 31.6969 -90.1681 59° Northeast 449 517 35,000  Level Houston Center
Thu 02:55:43 PM 31.7606 -90.0422 59° Northeast 449 517 35,000  Level Houston Center
Thu 02:56:45 PM 31.8247 -89.9164 59° Northeast 448 516 35,000  Level Houston Center
Thu 02:57:31 PM 31.8794 -89.8069 59° Northeast 447 514 35,000  Level Memphis Center
Thu 02:58:31 PM 31.9478 -89.6867 56° Northeast 447 514 35,000  Level Memphis Center
Thu 02:59:31 PM 32.0286 -89.5781 49° Northeast 447 514 35,000  Level Memphis Center
Thu 03:00:31 PM 32.1092 -89.4669 49° Northeast 442 509 35,000  Level Memphis Center
Thu 03:01:31 PM 32.1878 -89.3608 49° Northeast 437 503 35,000  Level Memphis Center
Thu 03:02:31 PM 32.2764 -89.2417 49° Northeast 437 503 35,000  Level Memphis Center
Thu 03:03:31 PM 32.3633 -89.1400 45° Northeast 437 503 35,000  Level Memphis Center
Thu 03:04:31 PM 32.4542 -89.0475 41° Northeast 432 497 35,000  Level Memphis Center
Thu 03:05:31 PM 32.5469 -88.9550 40° Northeast 432 497 35,000  Level Memphis Center
Thu 03:06:31 PM 32.6314 -88.8475 47° Northeast 427 491 35,000  Level Memphis Center
Thu 03:07:31 PM 32.7072 -88.7378 51° Northeast 427 491 35,000  Level Memphis Center
Thu 03:08:31 PM 32.7872 -88.6275 49° Northeast 432 497 35,000  Level Memphis Center
Thu 03:09:31 PM 32.8628 -88.5172 51° Northeast 432 497 35,000  Level Memphis Center
Thu 03:10:31 PM 32.9425 -88.4067 49° Northeast 432 497 35,000  Level Memphis Center
Thu 03:11:31 PM 33.0200 -88.2958 50° Northeast 432 497 35,000  Level Memphis Center
Thu 03:12:31 PM 33.0872 -88.1950 51° Northeast 439 505 35,000  Level Memphis Center
Thu 03:14:52 PM 33.2694 -87.9269 51° Northeast 450 518 35,000  Level Atlanta Center
Thu 03:15:52 PM 33.3481 -87.8136 50° Northeast 450 518 35,000  Level Atlanta Center
Thu 03:16:52 PM 33.4267 -87.7000 50° Northeast 450 518 35,000  Level Atlanta Center
Thu 03:17:52 PM 33.5053 -87.5839 51° Northeast 450 518 35,000  Level Atlanta Center
Thu 03:18:52 PM 33.5836 -87.4700 50° Northeast 445 512 35,000  Level Atlanta Center
Thu 03:19:52 PM 33.6642 -87.3533 50° Northeast 445 512 35,000  Level Atlanta Center
Thu 03:20:52 PM 33.7422 -87.2364 51° Northeast 445 512 35,000  Level Atlanta Center
Thu 03:21:52 PM 33.8206 -87.1194 51° Northeast 445 512 35,000  Level Atlanta Center
Thu 03:22:52 PM 33.9006 -87.0019 51° Northeast 445 512 35,000  Level Atlanta Center
Thu 03:23:52 PM 33.9783 -86.8844 51° Northeast 445 512 35,000  Level Atlanta Center
Thu 03:24:52 PM 34.0583 -86.7669 51° Northeast 445 512 35,000  Level Atlanta Center
Thu 03:25:52 PM 34.1381 -86.6464 51° Northeast 450 518 35,000  Level Atlanta Center
Thu 03:26:52 PM 34.2178 -86.5283 51° Northeast 450 518 35,000  Level Atlanta Center
Thu 03:27:52 PM 34.2975 -86.4100 51° Northeast 450 518 35,000  Level Atlanta Center
Thu 03:28:52 PM 34.3769 -86.2914 51° Northeast 450 518 35,000  Level Atlanta Center
Thu 03:29:52 PM 34.4542 -86.1725 52° Northeast 450 518 35,000  Level Atlanta Center
Thu 03:30:52 PM 34.5311 -86.0558 51° Northeast 450 518 35,000 -750 Level Atlanta Center
Thu 03:31:52 PM 34.6061 -85.9442 51° Northeast 440 506 33,500 -1,700 Descending Atlanta Center
Thu 03:32:52 PM 34.6808 -85.8272 52° Northeast 440 506 31,600 -2,050 Descending Atlanta Center
Thu 03:33:52 PM 34.7639 -85.7075 50° Northeast 430 495 29,400 -2,050 Descending Atlanta Center
Thu 03:34:52 PM 34.8508 -85.5953 47° Northeast 435 501 27,500 -1,900 Descending Atlanta Center
Thu 03:35:52 PM 34.9442 -85.4881 43° Northeast 447 514 25,600 -1,750 Descending Atlanta Center
Thu 03:36:52 PM 35.0308 -85.3678 49° Northeast 458 527 24,000 -800 Descending Atlanta Center
Thu 03:37:52 PM 35.1031 -85.2472 54° Northeast 453 521 24,000  Level Atlanta Center
Thu 03:38:52 PM 35.1772 -85.1264 53° Northeast 448 516 24,000 -200 Level Atlanta Center
Thu 03:39:52 PM 35.2492 -85.0025 55° Northeast 443 510 23,600 -1,600 Descending Atlanta Center
Thu 03:40:52 PM 35.3231 -84.8814 53° Northeast 443 510 20,800 -2,900 Descending Atlanta Center
Thu 03:41:52 PM 35.3947 -84.7675 52° Northeast 438 504 17,800 -2,900 Descending Atlanta Center
Thu 03:42:52 PM 35.4581 -84.6481 57° Northeast 420 483 15,000 -2,850 Descending Atlanta Center
Thu 03:43:52 PM 35.5169 -84.5389 56° Northeast 410 472 12,100 -2,000 Descending Atlanta Center
Thu 03:44:52 PM 35.5736 -84.4344 56° Northeast 389 448 11,000 -1,000 Descending Atlanta Center
Thu 03:45:52 PM 35.6219 -84.3506 55° Northeast 339 390 10,100 -1,100 Descending Atlanta Center
Thu 03:46:52 PM 35.6764 -84.2714 50° Northeast 309 356 8,800 -1,400 Descending Atlanta Center
Thu 03:47:52 PM 35.7286 -84.1972 49° Northeast 293 337 7,300 -900 Descending Atlanta Center
Thu 03:48:52 PM 35.7828 -84.1258 47° Northeast 278 320 7,000 -150 Descending Atlanta Center
Thu 03:49:52 PM 35.8350 -84.0592 46° Northeast 272 313 7,000 -1,250 Level Atlanta Center
Thu 03:50:52 PM 35.8850 -83.9925 47° Northeast 265 305 4,500 -2,450 Descending Atlanta Center
Thu 03:51:52 PM 35.8600 -83.9464 124° Southeast 142 163 2,100 -1,650 Descending Atlanta Center
Thu 03:52:52 PM 35.8247 -83.9797 217° Southwest 65 75 1,200 -900 Descending Atlanta Center

Login

Don't have an account? Register now (free) for customized features, flight alerts, and more!